createdAt,value
2019-03-12T00:01:21.534Z,10.10
2019-03-12T00:03:50.460Z,13.57
2019-03-12T00:06:19.485Z,11.77
2019-03-12T00:08:49.385Z,12.40
2019-03-12T00:11:18.419Z,9.77
2019-03-12T00:13:47.502Z,14.00
2019-03-12T00:16:16.534Z,10.43
2019-03-12T00:18:45.586Z,8.43
2019-03-12T00:21:14.575Z,8.13
2019-03-12T00:23:43.597Z,9.43
2019-03-12T00:26:12.622Z,8.70
2019-03-12T00:28:41.655Z,11.47
2019-03-12T00:31:10.645Z,9.03
2019-03-12T00:33:39.660Z,19.20
2019-03-12T00:36:08.802Z,6.73
2019-03-12T00:38:37.757Z,10.53
2019-03-12T00:41:06.719Z,8.47
2019-03-12T00:43:35.733Z,10.70
2019-03-12T00:46:04.771Z,8.07
2019-03-12T00:48:33.862Z,10.97
2019-03-12T00:51:02.849Z,11.43
2019-03-12T00:53:31.920Z,11.50
2019-03-12T00:56:00.938Z,12.93
2019-03-12T00:58:29.985Z,8.13
2019-03-12T01:00:58.980Z,10.93
2019-03-12T01:03:28.018Z,8.57
2019-03-12T01:05:57.014Z,13.73
2019-03-12T01:08:26.005Z,13.70
2019-03-12T01:10:55.034Z,9.93
2019-03-12T01:13:24.087Z,15.73
2019-03-12T01:15:53.173Z,11.60
2019-03-12T01:18:22.272Z,7.33
2019-03-12T01:20:51.311Z,10.03
2019-03-12T01:23:20.407Z,14.47
2019-03-12T01:25:49.512Z,10.03
2019-03-12T01:28:18.582Z,13.97
2019-03-12T01:30:47.647Z,10.83
2019-03-12T01:33:16.702Z,10.60
2019-03-12T01:35:45.839Z,12.60
2019-03-12T01:38:14.840Z,10.80
2019-03-12T01:40:43.850Z,11.17
2019-03-12T01:43:12.908Z,10.47
2019-03-12T01:45:41.990Z,10.63
2019-03-12T01:48:11.012Z,15.57
2019-03-12T01:50:40.029Z,10.53
2019-03-12T01:53:09.091Z,10.53
2019-03-12T01:55:38.035Z,9.10
2019-03-12T01:58:07.066Z,10.10
2019-03-12T02:00:35.999Z,15.07
2019-03-12T02:03:05.487Z,10.23
2019-03-12T02:05:34.594Z,11.17
2019-03-12T02:08:03.667Z,8.97
2019-03-12T02:10:32.641Z,12.20
2019-03-12T02:13:01.737Z,8.93
2019-03-12T02:15:30.763Z,12.73
2019-03-12T02:17:59.712Z,11.23
2019-03-12T02:20:28.818Z,15.43
2019-03-12T02:22:57.820Z,9.20
2019-03-12T02:25:26.851Z,11.60
2019-03-12T02:27:55.911Z,9.03
2019-03-12T02:30:24.975Z,17.00
2019-03-12T02:32:54.003Z,9.33
2019-03-12T02:35:23.053Z,12.23
2019-03-12T02:37:52.139Z,9.30
2019-03-12T02:40:21.119Z,8.97
2019-03-12T02:42:50.122Z,18.87
2019-03-12T02:45:19.144Z,16.93
2019-03-12T02:47:48.249Z,14.20
2019-03-12T02:50:17.303Z,13.17
2019-03-12T02:52:46.381Z,11.33
2019-03-12T02:55:15.394Z,9.13
2019-03-12T02:57:44.486Z,15.80
2019-03-12T03:00:15.755Z,13.03
2019-03-12T03:02:44.832Z,15.67
2019-03-12T03:05:13.840Z,13.00
2019-03-12T03:07:56.504Z,9.57
2019-03-12T03:10:25.716Z,16.43
2019-03-12T03:12:56.086Z,19.07
2019-03-12T03:15:45.530Z,14.67
2019-03-12T03:18:14.589Z,13.07
2019-03-12T03:20:43.737Z,12.77
2019-03-12T03:23:12.815Z,14.50
2019-03-12T03:25:41.997Z,15.03
2019-03-12T03:28:11.134Z,17.23
2019-03-12T03:30:40.231Z,24.77
2019-03-12T03:33:09.328Z,16.20
2019-03-12T03:35:38.456Z,17.10
2019-03-12T03:38:07.493Z,15.67
2019-03-12T03:40:36.487Z,15.40
2019-03-12T03:43:05.562Z,18.47
2019-03-12T03:45:34.600Z,17.17
2019-03-12T03:48:03.674Z,20.53
2019-03-12T03:50:32.793Z,15.47
2019-03-12T03:53:01.861Z,19.87
2019-03-12T03:55:30.939Z,19.63
2019-03-12T03:57:59.962Z,16.07
2019-03-12T04:00:29.057Z,19.07
2019-03-12T04:02:58.123Z,13.10
2019-03-12T04:05:27.195Z,14.37
2019-03-12T04:07:56.196Z,14.57
2019-03-12T04:10:25.183Z,19.17
2019-03-12T04:12:54.236Z,15.37
2019-03-12T04:15:23.345Z,16.77
2019-03-12T04:17:52.379Z,20.13
2019-03-12T04:20:41.256Z,14.90
2019-03-12T04:23:10.317Z,17.40
2019-03-12T04:25:39.377Z,14.50
2019-03-12T04:28:08.436Z,16.87
2019-03-12T04:30:38.482Z,15.83
2019-03-12T04:33:33.053Z,19.63
2019-03-12T04:36:02.046Z,21.73
2019-03-12T04:38:31.060Z,17.20
2019-03-12T04:41:19.262Z,16.57
2019-03-12T04:43:48.347Z,11.23
2019-03-12T04:46:17.433Z,19.40
2019-03-12T04:48:46.422Z,17.83
2019-03-12T04:51:16.705Z,16.33
2019-03-12T04:53:45.769Z,22.47
2019-03-12T04:56:14.803Z,18.93
2019-03-12T04:58:43.853Z,16.50
2019-03-12T05:01:12.837Z,20.93
2019-03-12T05:03:41.828Z,21.53
2019-03-12T05:06:10.841Z,14.40
2019-03-12T05:08:39.968Z,22.00
2019-03-12T05:11:09.125Z,13.57
2019-03-12T05:13:38.149Z,17.60
2019-03-12T05:16:07.187Z,21.60
2019-03-12T05:18:36.194Z,18.20
2019-03-12T05:21:05.207Z,14.97
2019-03-12T05:23:34.323Z,17.50
2019-03-12T05:26:03.397Z,15.73
2019-03-12T05:28:32.361Z,17.80
2019-03-12T05:31:01.351Z,16.30
2019-03-12T05:33:30.362Z,15.37
2019-03-12T05:35:59.443Z,13.07
2019-03-12T05:38:28.538Z,13.00
2019-03-12T05:40:57.528Z,14.53
2019-03-12T05:43:28.873Z,10.63
2019-03-12T05:45:57.831Z,18.63
2019-03-12T05:48:26.877Z,8.40
2019-03-12T05:50:55.940Z,14.63
2019-03-12T05:53:33.109Z,10.20
2019-03-12T05:56:02.105Z,7.47
2019-03-12T05:58:31.155Z,14.07
2019-03-12T06:01:00.193Z,15.87
2019-03-12T06:03:30.477Z,13.47
2019-03-12T06:05:59.618Z,13.17
2019-03-12T06:08:28.696Z,11.33
2019-03-12T06:10:57.778Z,10.43
2019-03-12T06:13:26.860Z,11.63
2019-03-12T06:15:55.840Z,8.07
2019-03-12T06:18:24.916Z,11.70
2019-03-12T06:20:53.955Z,11.70
2019-03-12T06:23:22.983Z,12.23
2019-03-12T06:25:52.220Z,9.77
2019-03-12T06:28:21.243Z,13.93
2019-03-12T06:31:08.827Z,15.60
2019-03-12T06:33:54.114Z,12.13
2019-03-12T06:36:36.767Z,14.30
2019-03-12T06:39:13.910Z,15.53
2019-03-12T06:41:50.393Z,16.87
2019-03-12T06:44:27.150Z,10.27
2019-03-12T06:47:06.585Z,15.00
2019-03-12T06:49:44.680Z,15.60
2019-03-12T06:52:39.755Z,18.57
2019-03-12T06:55:28.346Z,14.30
2019-03-12T06:58:22.467Z,17.93
2019-03-12T07:01:08.379Z,10.63
2019-03-12T07:03:46.338Z,17.37
2019-03-12T07:06:33.338Z,11.60
2019-03-12T07:09:17.405Z,15.40
2019-03-12T07:11:59.507Z,16.47
2019-03-12T07:15:06.236Z,12.77
2019-03-12T07:17:57.121Z,10.77
2019-03-12T07:20:44.105Z,17.73
2019-03-12T07:23:40.986Z,15.33
2019-03-12T07:26:38.044Z,15.57
2019-03-12T07:29:18.966Z,14.83
2019-03-12T07:32:10.117Z,14.30
2019-03-12T07:35:00.980Z,11.60
2019-03-12T07:37:44.534Z,14.07
2019-03-12T07:40:38.694Z,14.37
2019-03-12T07:43:29.866Z,8.30
2019-03-12T07:46:26.864Z,10.30
2019-03-12T07:49:13.677Z,15.13
2019-03-12T07:51:50.190Z,17.00
2019-03-12T07:54:37.085Z,10.13
2019-03-12T07:57:16.186Z,10.97
2019-03-12T07:59:55.364Z,11.93
2019-03-12T08:02:41.598Z,15.70
2019-03-12T08:05:41.958Z,11.30
2019-03-12T08:08:26.189Z,13.80
2019-03-12T08:11:19.331Z,15.83
2019-03-12T08:14:06.003Z,11.20
2019-03-12T08:17:00.204Z,11.70
2019-03-12T08:19:47.026Z,11.80
2019-03-12T08:22:47.124Z,15.17
2019-03-12T08:25:37.990Z,6.00
2019-03-12T08:28:31.968Z,10.07
2019-03-12T08:31:10.253Z,9.60
2019-03-12T08:34:01.447Z,13.27
2019-03-12T08:36:48.646Z,9.10
2019-03-12T08:39:23.977Z,12.07
2019-03-12T08:42:14.981Z,8.43
2019-03-12T08:45:16.448Z,5.67
2019-03-12T08:48:04.650Z,11.83
2019-03-12T08:50:52.784Z,6.80
2019-03-12T08:53:39.364Z,10.50
2019-03-12T08:56:26.227Z,5.77
2019-03-12T08:59:26.614Z,10.27
2019-03-12T09:02:14.691Z,10.07
2019-03-12T09:05:05.569Z,8.63
2019-03-12T09:07:52.169Z,7.43
2019-03-12T09:10:46.614Z,9.33
2019-03-12T09:13:34.723Z,8.77
2019-03-12T09:16:14.058Z,8.63
2019-03-12T09:19:01.874Z,9.60
2019-03-12T09:21:55.831Z,13.03
2019-03-12T09:24:47.014Z,10.23
2019-03-12T09:27:35.125Z,11.40
2019-03-12T09:30:21.068Z,13.33
2019-03-12T09:33:12.181Z,10.33
2019-03-12T09:36:15.493Z,11.70
2019-03-12T09:38:52.938Z,9.40
2019-03-12T09:41:41.046Z,8.97
2019-03-12T09:44:17.669Z,9.40
2019-03-12T09:47:08.185Z,10.57
2019-03-12T09:50:02.449Z,11.43
2019-03-12T09:52:50.532Z,10.07
2019-03-12T09:55:36.858Z,10.80
2019-03-12T09:58:19.125Z,14.07
2019-03-12T10:00:54.815Z,9.97
2019-03-12T10:03:51.278Z,8.53
2019-03-12T10:06:48.663Z,10.10
2019-03-12T10:09:45.768Z,8.37
2019-03-12T10:12:22.014Z,7.70
2019-03-12T10:15:15.867Z,9.83
2019-03-12T10:18:03.986Z,11.80
2019-03-12T10:20:50.690Z,12.03
2019-03-12T10:23:27.208Z,12.50
2019-03-12T10:26:13.833Z,10.07
2019-03-12T10:29:11.071Z,7.60
2019-03-12T10:32:04.943Z,7.57
2019-03-12T10:34:49.755Z,13.67
2019-03-12T10:37:29.754Z,7.77
2019-03-12T10:40:25.096Z,11.97
2019-03-12T10:43:05.775Z,6.77
2019-03-12T10:45:52.318Z,8.90
2019-03-12T10:48:21.370Z,7.13
2019-03-12T10:50:50.314Z,9.13
2019-03-12T10:53:19.316Z,12.07
2019-03-12T10:55:48.340Z,8.47
2019-03-12T10:58:17.368Z,13.20
2019-03-12T11:00:46.574Z,9.20
2019-03-12T11:03:15.741Z,10.43
2019-03-12T11:05:46.127Z,9.20
2019-03-12T11:08:15.454Z,9.57
2019-03-12T11:10:44.482Z,10.40
2019-03-12T11:13:14.855Z,9.37
2019-03-12T11:15:44.118Z,12.83
2019-03-12T11:18:13.114Z,8.57
2019-03-12T11:20:42.135Z,12.37
2019-03-12T11:23:11.156Z,8.47
2019-03-12T11:25:40.329Z,9.37
2019-03-12T11:28:09.440Z,11.30
2019-03-12T11:30:38.394Z,8.10
2019-03-12T11:33:07.875Z,10.53
2019-03-12T11:35:39.578Z,8.97
2019-03-12T11:38:07.857Z,9.83
2019-03-12T11:40:37.839Z,9.13
2019-03-12T11:43:07.400Z,10.10
2019-03-12T11:45:38.066Z,8.00
2019-03-12T11:48:07.566Z,9.47
2019-03-12T11:50:36.621Z,16.27
2019-03-12T11:53:05.686Z,9.63
2019-03-12T11:55:34.756Z,7.70
2019-03-12T11:58:03.959Z,6.43
2019-03-12T12:00:38.641Z,11.00
2019-03-12T12:03:07.633Z,7.17
2019-03-12T12:05:36.650Z,8.47
2019-03-12T12:08:05.570Z,7.07
2019-03-12T12:10:44.881Z,9.43
2019-03-12T12:13:15.315Z,9.07
2019-03-12T12:15:44.468Z,7.00
2019-03-12T12:18:13.598Z,5.67
2019-03-12T12:20:42.559Z,7.23
2019-03-12T12:23:11.600Z,8.20
2019-03-12T12:25:40.577Z,8.30
2019-03-12T12:28:09.554Z,7.23
2019-03-12T12:30:38.613Z,5.10
2019-03-12T12:33:07.763Z,7.10
2019-03-12T12:35:36.838Z,4.83
2019-03-12T12:38:05.901Z,7.17
2019-03-12T12:40:34.953Z,10.47
2019-03-12T12:43:04.047Z,9.13
2019-03-12T12:45:33.130Z,7.20
2019-03-12T12:48:02.118Z,7.67
2019-03-12T12:50:31.284Z,8.23
2019-03-12T12:53:00.366Z,8.47
2019-03-12T12:55:29.387Z,7.73
2019-03-12T12:57:58.434Z,7.50
2019-03-12T13:00:27.550Z,10.23
2019-03-12T13:02:56.687Z,9.83
2019-03-12T13:05:25.690Z,8.90
2019-03-12T13:07:54.679Z,10.23
2019-03-12T13:10:24.313Z,7.97
2019-03-12T13:12:53.346Z,11.30
2019-03-12T13:15:22.478Z,9.90
2019-03-12T13:17:51.404Z,7.70
2019-03-12T13:20:20.404Z,8.37
2019-03-12T13:22:49.478Z,7.33
2019-03-12T13:25:18.644Z,6.93
2019-03-12T13:27:47.717Z,10.00
2019-03-12T13:30:18.142Z,10.47
2019-03-12T13:32:47.161Z,10.30
2019-03-12T13:35:16.230Z,7.83
2019-03-12T13:37:45.214Z,8.90
2019-03-12T13:40:15.587Z,15.00
2019-03-12T13:42:44.673Z,7.43
2019-03-12T13:45:14.961Z,7.77
2019-03-12T13:47:44.080Z,9.10
2019-03-12T13:50:13.156Z,13.37
2019-03-12T13:52:42.152Z,14.30
2019-03-12T13:55:11.215Z,13.53
2019-03-12T13:57:40.296Z,10.13
2019-03-12T14:00:15.420Z,10.93
2019-03-12T14:02:45.960Z,9.67
2019-03-12T14:05:15.039Z,12.57
2019-03-12T14:07:44.094Z,9.73
2019-03-12T14:10:15.721Z,8.70
2019-03-12T14:12:44.869Z,10.27
2019-03-12T14:15:25.267Z,10.10
2019-03-12T14:17:54.318Z,9.97
2019-03-12T14:20:56.285Z,7.23
2019-03-12T14:23:34.363Z,10.20
2019-03-12T14:26:03.491Z,5.07
2019-03-12T14:28:32.502Z,10.30
2019-03-12T14:31:02.734Z,10.70
2019-03-12T14:33:31.916Z,9.53
2019-03-12T14:36:01.017Z,10.13
2019-03-12T14:38:30.050Z,6.63
2019-03-12T14:40:59.074Z,9.60
2019-03-12T14:43:28.003Z,9.70
2019-03-12T14:45:57.062Z,6.30
2019-03-12T14:48:42.642Z,8.13
2019-03-12T14:51:50.343Z,9.67
2019-03-12T14:54:19.411Z,8.20
2019-03-12T14:56:48.476Z,7.63
2019-03-12T14:59:17.512Z,10.43
2019-03-12T15:01:46.490Z,10.00
2019-03-12T15:04:15.541Z,9.83
2019-03-12T15:06:44.681Z,8.40
2019-03-12T15:09:14.914Z,11.70
2019-03-12T15:11:43.953Z,8.20
2019-03-12T15:14:13.084Z,10.80
2019-03-12T15:16:42.084Z,7.23
2019-03-12T15:19:11.133Z,9.20
2019-03-12T15:21:40.170Z,12.07
2019-03-12T15:24:09.093Z,9.13
2019-03-12T15:26:38.122Z,11.90
2019-03-12T15:29:07.147Z,8.73
2019-03-12T15:31:36.159Z,13.13
2019-03-12T15:34:05.184Z,11.20
2019-03-12T15:36:34.230Z,9.23
2019-03-12T15:39:04.910Z,8.93
2019-03-12T15:41:34.021Z,7.70
2019-03-12T15:44:03.326Z,11.40
2019-03-12T15:46:32.316Z,8.27
2019-03-12T15:49:01.327Z,9.23
2019-03-12T15:51:30.411Z,10.17
2019-03-12T15:53:59.348Z,11.10
2019-03-12T15:56:28.394Z,8.30
2019-03-12T15:59:16.714Z,8.37
2019-03-12T16:01:45.853Z,10.03
2019-03-12T16:04:14.869Z,12.13
2019-03-12T16:06:43.852Z,6.47
2019-03-12T16:09:14.248Z,8.23
2019-03-12T16:11:43.246Z,7.93
2019-03-12T16:14:12.247Z,5.73
2019-03-12T16:16:41.300Z,9.80
2019-03-12T16:19:10.316Z,8.23
2019-03-12T16:21:40.488Z,9.50
2019-03-12T16:24:09.730Z,6.23
2019-03-12T16:26:38.894Z,7.80
2019-03-12T16:29:07.921Z,8.40
2019-03-12T16:31:36.928Z,6.87
2019-03-12T16:34:05.963Z,4.50
2019-03-12T16:36:35.018Z,6.20
2019-03-12T16:39:05.186Z,9.73
2019-03-12T16:41:34.198Z,8.33
2019-03-12T16:44:03.211Z,8.13
2019-03-12T16:46:32.234Z,5.13
2019-03-12T16:49:01.259Z,6.40
2019-03-12T16:51:30.267Z,7.43
2019-03-12T16:53:59.358Z,12.83
2019-03-12T16:56:28.394Z,11.43
2019-03-12T16:58:57.431Z,6.60
2019-03-12T17:01:26.494Z,7.53
2019-03-12T17:03:55.581Z,7.50
2019-03-12T17:06:24.646Z,8.17
2019-03-12T17:08:53.702Z,9.43
2019-03-12T17:11:22.849Z,11.27
2019-03-12T17:13:51.878Z,7.23
2019-03-12T17:16:20.975Z,10.20
2019-03-12T17:18:49.984Z,11.57
2019-03-12T17:21:19.103Z,10.27
2019-03-12T17:23:48.219Z,10.63
2019-03-12T17:26:17.249Z,6.97
2019-03-12T17:28:46.317Z,8.70
2019-03-12T17:31:15.317Z,11.40
2019-03-12T17:33:44.351Z,9.80
2019-03-12T17:36:13.422Z,10.73
2019-03-12T17:38:46.916Z,10.57
2019-03-12T17:41:15.831Z,11.50
2019-03-12T17:43:45.050Z,8.20
2019-03-12T17:46:14.123Z,6.73
2019-03-12T17:48:44.612Z,9.60
2019-03-12T17:51:13.651Z,5.93
2019-03-12T17:53:42.801Z,10.90
2019-03-12T17:56:11.800Z,9.50
2019-03-12T17:58:40.938Z,8.43
2019-03-12T18:01:10.028Z,8.00
2019-03-12T18:03:39.067Z,6.07
2019-03-12T18:06:08.216Z,10.17
2019-03-12T18:08:37.281Z,7.37
2019-03-12T18:11:06.351Z,12.07
2019-03-12T18:13:35.410Z,10.13
2019-03-12T18:16:04.410Z,9.70
2019-03-12T18:18:33.469Z,5.03
2019-03-12T18:21:02.535Z,11.77
2019-03-12T18:23:31.690Z,8.07
2019-03-12T18:26:01.377Z,16.30
2019-03-12T18:28:30.391Z,8.43
2019-03-12T18:30:59.354Z,8.20
2019-03-12T18:33:28.489Z,9.57
2019-03-12T18:35:57.593Z,8.33
2019-03-12T18:38:26.765Z,10.13
2019-03-12T18:40:55.914Z,7.30
2019-03-12T18:43:24.969Z,10.77
2019-03-12T18:45:54.049Z,9.27
2019-03-12T18:48:23.145Z,10.37
2019-03-12T18:50:52.139Z,7.93
2019-03-12T18:53:21.209Z,6.13
2019-03-12T18:56:04.891Z,5.63
2019-03-12T18:58:33.910Z,4.73
2019-03-12T19:01:08.806Z,5.00
2019-03-12T19:03:37.891Z,4.47
2019-03-12T19:06:09.874Z,6.07
2019-03-12T19:08:37.875Z,6.73
2019-03-12T19:11:26.095Z,7.63
2019-03-12T19:13:55.158Z,4.63
2019-03-12T19:16:24.286Z,7.17
2019-03-12T19:18:53.417Z,9.03
2019-03-12T19:21:23.586Z,3.50
2019-03-12T19:23:52.638Z,4.57
2019-03-12T19:26:21.800Z,7.03
2019-03-12T19:28:51.003Z,5.50
2019-03-12T19:31:51.401Z,6.33
2019-03-12T19:34:28.013Z,6.80
2019-03-12T19:36:57.100Z,5.30
2019-03-12T19:39:26.157Z,2.57
2019-03-12T19:41:56.574Z,3.17
2019-03-12T19:44:25.645Z,4.80
2019-03-12T19:46:54.699Z,5.60
2019-03-12T19:49:23.958Z,5.50
2019-03-12T19:51:52.941Z,6.67
2019-03-12T19:54:22.015Z,7.80
2019-03-12T19:56:51.145Z,2.93
2019-03-12T19:59:20.231Z,5.03
2019-03-12T20:01:50.643Z,2.17
2019-03-12T20:04:19.674Z,4.60
2019-03-12T20:06:48.761Z,5.83
2019-03-12T20:09:27.098Z,3.87
2019-03-12T20:12:39.456Z,6.07
2019-03-12T20:15:40.614Z,4.87
2019-03-12T20:18:56.048Z,2.83
2019-03-12T20:22:02.082Z,4.03
2019-03-12T20:25:18.533Z,4.23
2019-03-12T20:28:33.272Z,5.97
2019-03-12T20:31:49.304Z,6.23
2019-03-12T20:34:58.536Z,3.70
2019-03-12T20:38:04.513Z,8.87
2019-03-12T20:41:19.288Z,4.20
2019-03-12T20:44:25.256Z,4.87
2019-03-12T20:47:34.689Z,9.37
2019-03-12T20:50:28.614Z,7.27
2019-03-12T20:53:45.456Z,5.30
2019-03-12T20:56:57.660Z,6.90
2019-03-12T21:00:07.019Z,3.33
2019-03-12T21:03:41.166Z,4.63
2019-03-12T21:06:54.308Z,5.43
2019-03-12T21:09:59.035Z,7.90
2019-03-12T21:13:14.101Z,5.27
2019-03-12T21:16:20.143Z,4.60
2019-03-12T21:19:26.117Z,5.63
2019-03-12T21:22:48.876Z,3.90
2019-03-12T21:26:05.391Z,6.17
2019-03-12T21:28:50.836Z,8.40
2019-03-12T21:31:19.889Z,9.10
2019-03-12T21:33:49.814Z,11.23
2019-03-12T21:36:18.967Z,5.00
2019-03-12T21:38:49.374Z,6.93
2019-03-12T21:41:18.380Z,6.93
2019-03-12T21:43:47.427Z,6.67
2019-03-12T21:46:16.497Z,6.00
2019-03-12T21:48:45.550Z,6.20
2019-03-12T21:51:14.622Z,6.63
2019-03-12T21:54:02.858Z,5.13
2019-03-12T21:56:31.910Z,6.13
2019-03-12T21:59:00.932Z,5.33
2019-03-12T22:01:29.973Z,9.30
2019-03-12T22:04:00.077Z,7.07
2019-03-12T22:06:29.126Z,5.73
2019-03-12T22:08:58.170Z,9.87
2019-03-12T22:11:27.301Z,9.40
2019-03-12T22:13:56.384Z,6.33
2019-03-12T22:16:25.346Z,5.47
2019-03-12T22:18:54.353Z,6.30
2019-03-12T22:21:30.242Z,8.43
2019-03-12T22:24:05.170Z,7.60
2019-03-12T22:26:34.203Z,10.47
2019-03-12T22:29:03.249Z,5.93
2019-03-12T22:31:32.381Z,11.20
2019-03-12T22:34:04.581Z,10.37
2019-03-12T22:36:33.656Z,11.60
2019-03-12T22:39:02.794Z,6.37
2019-03-12T22:41:31.902Z,8.33
2019-03-12T22:44:00.940Z,10.37
2019-03-12T22:46:30.000Z,10.53
2019-03-12T22:48:59.006Z,13.40
2019-03-12T22:51:27.962Z,7.30
2019-03-12T22:53:57.018Z,8.90
2019-03-12T22:56:26.080Z,9.23
2019-03-12T22:58:55.146Z,12.17
2019-03-12T23:01:24.293Z,9.67
2019-03-12T23:03:53.334Z,12.33
2019-03-12T23:06:22.398Z,10.07
2019-03-12T23:08:51.390Z,13.70
2019-03-12T23:11:20.535Z,9.20
2019-03-12T23:13:49.585Z,9.30
2019-03-12T23:16:18.595Z,12.60
2019-03-12T23:18:47.598Z,9.93
2019-03-12T23:21:16.601Z,9.83
2019-03-12T23:23:45.752Z,9.97
2019-03-12T23:26:14.750Z,10.03
2019-03-12T23:28:43.737Z,12.90
2019-03-12T23:31:12.778Z,11.73
2019-03-12T23:33:41.939Z,13.90
2019-03-12T23:36:10.998Z,9.33
2019-03-12T23:38:40.078Z,8.50
2019-03-12T23:41:09.102Z,19.23
2019-03-12T23:43:38.218Z,9.63
2019-03-12T23:46:07.236Z,12.00
2019-03-12T23:48:36.329Z,9.73
2019-03-12T23:51:05.454Z,10.17
2019-03-12T23:53:34.435Z,10.87
2019-03-12T23:56:03.502Z,10.70
2019-03-12T23:58:32.567Z,11.57
